Wind From: 13-12-2017 10:08 Until: 14-12-2017 06:00 warning for: Wind Level: Yellow info button

Although rather usual in this region, locally or potentially dangerous phenomena are expected. (such as local winds, summer thunderstorms, rising streams or high waves) Be aware and pay attention to the latest weather updates, especially if you carry out activities exposed to weather or close to a stream or shoreline. 


Meteo18 Weather Cam more information Meteo18 Weather Cam


Thunder radar more information blitzortung!


Rain radar more information rain snow radar


Visit our other weather sites:

Template documentation
and downloads

And another site



Weather Underground History page Text

Daily Summary for January 26, 2017 Units:  Metric    English   Both
« Previous Day
Next Day »
Daily Weekly Monthly Yearly Custom
  High: Low: Average:
Temperature: 5.5 °C -7.9 °C -1.5 °C
Dew Point: 1.5 °C -9.1 °C -4.8 °C
Humidity: 92 % 57 % 79 %
Wind Speed: 20.9 km/h 0.0 km/h 3.6 km/h
Wind Gust: 30.6 km/h - -
Wind:- - East
Pressure: 1024.9 hPa 1015.5 hPa -
Precipitation: 0.3 mm    
Historical Graphs
 
 
Tabular Data for January 26, 2017
Time Temperature Dew Point Pressure Wind Wind Speed Wind Gust Humidity Rainfall Rate (Hourly)
00:02 -5.0 °C -7.1 °C 1024.9 hPa Calm   4.8 km/h 85 % 0.0 mm
00:12 -5.1 °C -7.2 °C 1024.9 hPa Calm   4.8 km/h 85 % 0.0 mm
00:17 -5.2 °C -7.2 °C 1024.9 hPa Calm   1.6 km/h 86 % 0.0 mm
00:22 -5.2 °C -7.2 °C 1024.9 hPa Calm   1.6 km/h 86 % 0.0 mm
00:27 -5.2 °C -7.2 °C 1024.6 hPa Calm   1.6 km/h 86 % 0.0 mm
00:32 -5.3 °C -7.3 °C 1024.6 hPa Calm   1.6 km/h 86 % 0.0 mm
00:37 -5.4 °C -7.2 °C 1024.6 hPa Calm   1.6 km/h 87 % 0.0 mm
00:42 -5.4 °C -7.2 °C 1024.6 hPa ENE 1.6 km/h 1.6 km/h 87 % 0.0 mm
00:52 -5.3 °C -7.3 °C 1024.9 hPa ENE 1.6 km/h 1.6 km/h 86 % 0.0 mm
00:57 -5.3 °C -7.3 °C 1024.9 hPa NE 1.6 km/h 4.8 km/h 86 % 0.0 mm
01:02 -5.4 °C -7.4 °C 1024.9 hPa ENE 4.8 km/h 4.8 km/h 86 % 0.0 mm
01:12 -5.6 °C -7.4 °C 1024.9 hPa Calm   6.4 km/h 87 % 0.0 mm
01:17 -5.7 °C -7.5 °C 1024.9 hPa NNE 3.2 km/h 6.4 km/h 87 % 0.0 mm
01:22 -5.7 °C -7.5 °C 1024.9 hPa Calm   6.4 km/h 87 % 0.0 mm
01:27 -5.7 °C -7.5 °C 1024.9 hPa Calm   4.8 km/h 87 % 0.0 mm
01:32 -5.8 °C -7.6 °C 1024.9 hPa Calm   4.8 km/h 87 % 0.0 mm
01:37 -5.8 °C -7.5 °C 1024.6 hPa Calm   3.2 km/h 88 % 0.0 mm
01:42 -5.8 °C -7.5 °C 1024.6 hPa ENE 1.6 km/h 3.2 km/h 88 % 0.0 mm
01:47 -5.9 °C -7.6 °C 1024.6 hPa ENE 3.2 km/h 3.2 km/h 88 % 0.0 mm
01:52 -5.8 °C -7.5 °C 1024.6 hPa East 3.2 km/h 3.2 km/h 88 % 0.0 mm
01:57 -5.9 °C -7.7 °C 1024.6 hPa East 3.2 km/h 6.4 km/h 87 % 0.0 mm
02:02 -6.0 °C -7.7 °C 1024.6 hPa ENE 1.6 km/h 6.4 km/h 88 % 0.0 mm
02:12 -5.9 °C -7.6 °C 1024.6 hPa Calm   6.4 km/h 88 % 0.0 mm
02:17 -6.0 °C -7.7 °C 1024.3 hPa ENE 3.2 km/h 4.8 km/h 88 % 0.0 mm
02:22 -6.1 °C -7.8 °C 1024.3 hPa ENE 1.6 km/h 4.8 km/h 88 % 0.0 mm
02:32 -6.1 °C -7.8 °C 1024.3 hPa Calm   4.8 km/h 88 % 0.0 mm
02:37 -6.1 °C -7.8 °C 1023.9 hPa NE 1.6 km/h 4.8 km/h 88 % 0.0 mm
02:42 -6.1 °C -7.6 °C 1023.9 hPa Calm   4.8 km/h 89 % 0.0 mm
02:47 -6.1 °C -7.6 °C 1023.9 hPa Calm   3.2 km/h 89 % 0.0 mm
02:52 -6.1 °C -7.8 °C 1023.9 hPa Calm   3.2 km/h 88 % 0.0 mm
02:57 -6.1 °C -7.8 °C 1023.9 hPa Calm   3.2 km/h 88 % 0.0 mm
03:02 -6.3 °C -8.0 °C 1023.9 hPa Calm   1.6 km/h 88 % 0.0 mm
03:12 -6.5 °C -8.0 °C 1023.6 hPa Calm   1.6 km/h 89 % 0.0 mm
03:17 -6.6 °C -8.1 °C 1023.6 hPa Calm   1.6 km/h 89 % 0.0 mm
03:22 -6.6 °C -8.1 °C 1023.6 hPa Calm   1.6 km/h 89 % 0.0 mm
03:27 -6.6 °C -8.1 °C 1023.6 hPa Calm   1.6 km/h 89 % 0.0 mm
03:32 -6.4 °C -7.9 °C 1023.6 hPa NNE 1.6 km/h 1.6 km/h 89 % 0.0 mm
03:37 -6.4 °C -7.9 °C 1023.6 hPa NE 1.6 km/h 1.6 km/h 89 % 0.0 mm
03:42 -6.3 °C -7.8 °C 1023.6 hPa NE 1.6 km/h 3.2 km/h 89 % 0.0 mm
03:47 -6.3 °C -7.8 °C 1023.6 hPa NE 4.8 km/h 4.8 km/h 89 % 0.0 mm
03:52 -6.2 °C -7.7 °C 1023.6 hPa NE 1.6 km/h 3.2 km/h 89 % 0.0 mm
03:57 -6.3 °C -7.8 °C 1023.2 hPa NNE 3.2 km/h 4.8 km/h 89 % 0.0 mm
04:02 -6.3 °C -8.0 °C 1023.2 hPa NE 1.6 km/h 4.8 km/h 88 % 0.0 mm
04:12 -6.6 °C -8.1 °C 1023.2 hPa Calm   4.8 km/h 89 % 0.0 mm
04:17 -6.7 °C -8.2 °C 1023.2 hPa Calm   3.2 km/h 89 % 0.0 mm
04:22 -6.7 °C -8.1 °C 1023.2 hPa NE 1.6 km/h 3.2 km/h 90 % 0.0 mm
04:27 -6.6 °C -8.0 °C 1023.2 hPa NE 3.2 km/h 3.2 km/h 90 % 0.0 mm
04:32 -6.6 °C -8.0 °C 1023.2 hPa NE 3.2 km/h 4.8 km/h 90 % 0.0 mm
04:37 -6.6 °C -8.1 °C 1023.2 hPa NE 3.2 km/h 6.4 km/h 89 % 0.0 mm
04:42 -6.7 °C -8.2 °C 1023.2 hPa NE 3.2 km/h 8.0 km/h 89 % 0.0 mm
04:47 -6.6 °C -8.0 °C 1023.2 hPa NE 3.2 km/h 8.0 km/h 90 % 0.0 mm
04:52 -6.6 °C -8.0 °C 1022.9 hPa NE 8.0 km/h 8.0 km/h 90 % 0.0 mm
04:57 -6.6 °C -8.0 °C 1022.9 hPa ENE 4.8 km/h 8.0 km/h 90 % 0.0 mm
05:02 -6.6 °C -8.0 °C 1022.9 hPa NE 3.2 km/h 8.0 km/h 90 % 0.0 mm
05:07 -6.6 °C -8.0 °C 1022.9 hPa NE 3.2 km/h 8.0 km/h 90 % 0.0 mm
05:12 -6.6 °C -8.0 °C 1022.9 hPa NE 8.0 km/h 8.0 km/h 90 % 0.0 mm
05:17 -6.6 °C -8.1 °C 1022.9 hPa NE 4.8 km/h 8.0 km/h 89 % 0.0 mm
05:22 -6.7 °C -8.1 °C 1022.9 hPa ENE 3.2 km/h 8.0 km/h 90 % 0.0 mm
05:27 -6.6 °C -8.0 °C 1022.6 hPa NE 4.8 km/h 8.0 km/h 90 % 0.0 mm
05:32 -6.7 °C -8.1 °C 1022.6 hPa NE 3.2 km/h 6.4 km/h 90 % 0.0 mm
05:37 -6.7 °C -8.1 °C 1022.6 hPa NE 4.8 km/h 6.4 km/h 90 % 0.0 mm
05:42 -6.7 °C -8.1 °C 1022.6 hPa NE 6.4 km/h 6.4 km/h 90 % 0.0 mm
05:47 -6.7 °C -8.1 °C 1022.6 hPa NE 8.0 km/h 8.0 km/h 90 % 0.0 mm
05:52 -6.7 °C -8.1 °C 1022.6 hPa NNE 6.4 km/h 8.0 km/h 90 % 0.0 mm
05:57 -6.6 °C -8.0 °C 1022.6 hPa NE 3.2 km/h 8.0 km/h 90 % 0.0 mm
06:02 -6.7 °C -8.1 °C 1022.6 hPa NE 1.6 km/h 9.7 km/h 90 % 0.0 mm
06:07 -6.7 °C -8.1 °C 1022.6 hPa NE 4.8 km/h 9.7 km/h 90 % 0.0 mm
06:12 -6.8 °C -8.2 °C 1022.6 hPa NNE 1.6 km/h 8.0 km/h 90 % 0.0 mm
06:17 -6.8 °C -8.2 °C 1022.6 hPa NNE 1.6 km/h 8.0 km/h 90 % 0.0 mm
06:22 -6.9 °C -8.3 °C 1022.6 hPa NNE 1.6 km/h 4.8 km/h 90 % 0.0 mm
06:32 -7.1 °C -8.5 °C 1022.6 hPa Calm   4.8 km/h 90 % 0.0 mm
06:42 -7.1 °C -8.3 °C 1022.6 hPa NNE 3.2 km/h 3.2 km/h 91 % 0.0 mm
06:47 -7.1 °C -8.5 °C 1022.6 hPa NNE 3.2 km/h 3.2 km/h 90 % 0.0 mm
06:52 -7.2 °C -8.4 °C 1022.2 hPa NNE 1.6 km/h 6.4 km/h 91 % 0.0 mm
07:02 -7.2 °C -8.4 °C 1022.2 hPa NNE 3.2 km/h 6.4 km/h 91 % 0.0 mm
07:07 -7.2 °C -8.4 °C 1022.2 hPa NNE 1.6 km/h 6.4 km/h 91 % 0.0 mm
07:17 -7.3 °C -8.5 °C 1022.2 hPa NNE 1.6 km/h 4.8 km/h 91 % 0.0 mm
07:22 -7.3 °C -8.5 °C 1022.2 hPa Calm   3.2 km/h 91 % 0.0 mm
07:27 -7.3 °C -8.5 °C 1022.2 hPa Calm   3.2 km/h 91 % 0.0 mm
07:32 -7.4 °C -8.6 °C 1022.2 hPa Calm   3.2 km/h 91 % 0.0 mm
07:37 -7.5 °C -8.7 °C 1022.2 hPa Calm   3.2 km/h 91 % 0.0 mm
07:42 -7.6 °C -8.8 °C 1022.2 hPa Calm     91 % 0.0 mm
07:47 -7.6 °C -8.8 °C 1022.2 hPa Calm     91 % 0.0 mm
07:52 -7.7 °C -8.8 °C 1022.2 hPa Calm     92 % 0.0 mm
07:57 -7.7 °C -8.8 °C 1022.2 hPa Calm     92 % 0.0 mm
08:02 -7.6 °C -8.7 °C 1022.2 hPa Calm   1.6 km/h 92 % 0.0 mm
08:07 -7.6 °C -8.7 °C 1022.2 hPa Calm   1.6 km/h 92 % 0.0 mm
08:12 -7.7 °C -8.8 °C 1022.2 hPa Calm   1.6 km/h 92 % 0.0 mm
08:17 -7.7 °C -8.9 °C 1022.2 hPa Calm   1.6 km/h 91 % 0.0 mm
08:22 -7.8 °C -8.9 °C 1022.2 hPa Calm   1.6 km/h 92 % 0.0 mm
08:27 -7.9 °C -9.1 °C 1022.2 hPa Calm   1.6 km/h 91 % 0.0 mm
08:32 -7.7 °C -8.8 °C 1022.2 hPa Calm   1.6 km/h 92 % 0.0 mm
08:37 -7.7 °C -8.8 °C 1022.2 hPa Calm   1.6 km/h 92 % 0.0 mm
08:42 -7.6 °C -8.7 °C 1022.2 hPa Calm   1.6 km/h 92 % 0.0 mm
08:47 -7.4 °C -8.5 °C 1022.2 hPa Calm   1.6 km/h 92 % 0.0 mm
08:52 -7.4 °C -8.6 °C 1021.9 hPa Calm   1.6 km/h 91 % 0.0 mm
08:57 -7.2 °C -8.3 °C 1021.9 hPa Calm   1.6 km/h 92 % 0.0 mm
09:02 -6.9 °C -8.1 °C 1021.9 hPa Calm   1.6 km/h 91 % 0.0 mm
09:07 -6.8 °C -8.0 °C 1021.9 hPa Calm   1.6 km/h 91 % 0.0 mm
09:12 -6.6 °C -8.0 °C 1021.9 hPa Calm     90 % 0.0 mm
09:17 -6.4 °C -7.8 °C 1021.9 hPa Calm     90 % 0.0 mm
09:22 -6.2 °C -7.7 °C 1021.9 hPa Calm     89 % 0.0 mm
09:27 -6.1 °C -7.6 °C 1021.9 hPa Calm     89 % 0.0 mm
09:32 -5.8 °C -7.2 °C 1021.9 hPa Calm     90 % 0.0 mm
09:37 -5.4 °C -6.9 °C 1022.2 hPa Calm     89 % 0.0 mm
09:42 -4.9 °C -6.7 °C 1022.2 hPa Calm   3.2 km/h 87 % 0.0 mm
09:47 -4.8 °C -6.8 °C 1022.2 hPa Calm   3.2 km/h 86 % 0.0 mm
09:52 -4.6 °C -6.7 °C 1021.9 hPa East 1.6 km/h 4.8 km/h 85 % 0.0 mm
09:57 -4.5 °C -6.6 °C 1021.9 hPa ENE 3.2 km/h 4.8 km/h 85 % 0.0 mm
10:02 -4.4 °C -6.5 °C 1021.9 hPa NE 1.6 km/h 8.0 km/h 85 % 0.0 mm
10:07 -4.2 °C -6.3 °C 1022.2 hPa Calm   8.0 km/h 85 % 0.0 mm
10:12 -4.0 °C -6.5 °C 1021.9 hPa Calm   8.0 km/h 83 % 0.0 mm
10:17 -3.9 °C -6.4 °C 1021.9 hPa ENE 3.2 km/h 8.0 km/h 83 % 0.0 mm
10:22 -4.1 °C -6.6 °C 1021.9 hPa Calm   8.0 km/h 83 % 0.0 mm
10:27 -3.8 °C -6.3 °C 1021.9 hPa Calm   8.0 km/h 83 % 0.0 mm
10:32 -3.7 °C -6.2 °C 1021.6 hPa Calm   9.7 km/h 83 % 0.0 mm
10:42 -3.6 °C -6.1 °C 1021.9 hPa Calm   4.8 km/h 83 % 0.0 mm
10:47 -3.4 °C -5.9 °C 1021.6 hPa ENE 1.6 km/h 4.8 km/h 83 % 0.0 mm
10:52 -3.2 °C -5.7 °C 1021.6 hPa Calm   4.8 km/h 83 % 0.0 mm
11:02 -2.6 °C -5.1 °C 1021.6 hPa Calm   4.8 km/h 83 % 0.0 mm
11:07 -1.9 °C -4.7 °C 1021.6 hPa ENE 4.8 km/h 4.8 km/h 81 % 0.0 mm
11:12 -2.2 °C -5.2 °C 1021.6 hPa ESE 1.6 km/h 8.0 km/h 80 % 0.0 mm
11:17 -2.2 °C -5.3 °C 1021.6 hPa East 4.8 km/h 8.0 km/h 79 % 0.0 mm
11:22 -2.1 °C -5.2 °C 1021.6 hPa SSE 4.8 km/h 8.0 km/h 79 % 0.0 mm
11:27 -1.9 °C -5.1 °C 1021.6 hPa East 4.8 km/h 8.0 km/h 79 % 0.0 mm
11:32 -1.6 °C -4.8 °C 1021.6 hPa Calm   8.0 km/h 79 % 0.0 mm
11:37 -1.4 °C -4.7 °C 1021.6 hPa ESE 4.8 km/h 8.0 km/h 78 % 0.0 mm
11:42 -1.3 °C -4.6 °C 1021.6 hPa ENE 6.4 km/h 11.3 km/h 78 % 0.0 mm
11:52 -0.9 °C -4.4 °C 1021.6 hPa ENE 1.6 km/h 14.5 km/h 77 % 0.0 mm
11:57 -0.7 °C -4.2 °C 1021.2 hPa East 4.8 km/h 14.5 km/h 77 % 0.0 mm
12:07 -0.7 °C -4.6 °C 1021.2 hPa SE 1.6 km/h 11.3 km/h 75 % 0.0 mm
12:12 -0.3 °C -4.0 °C 1021.2 hPa East 4.8 km/h 11.3 km/h 76 % 0.0 mm
12:17 -0.1 °C -3.8 °C 1021.2 hPa East 6.4 km/h 9.7 km/h 76 % 0.0 mm
12:22 0.2 °C -3.7 °C 1020.9 hPa SSE 1.6 km/h 9.7 km/h 75 % 0.0 mm
12:32 0.5 °C -3.6 °C 1020.9 hPa SE 1.6 km/h 9.7 km/h 74 % 0.0 mm
12:37 0.8 °C -3.5 °C 1020.9 hPa ENE 6.4 km/h 9.7 km/h 73 % 0.0 mm
12:42 0.7 °C -3.8 °C 1020.5 hPa East 6.4 km/h 6.4 km/h 72 % 0.0 mm
12:47 0.6 °C -3.9 °C 1020.5 hPa East 4.8 km/h 6.4 km/h 72 % 0.0 mm
12:57 1.0 °C -3.7 °C 1020.5 hPa ENE 9.7 km/h 9.7 km/h 71 % 0.0 mm
13:02 1.1 °C -3.6 °C 1020.5 hPa East 8.0 km/h 11.3 km/h 71 % 0.0 mm
13:07 1.2 °C -3.5 °C 1020.5 hPa ESE 4.8 km/h 11.3 km/h 71 % 0.0 mm
13:12 1.3 °C -3.4 °C 1020.5 hPa ESE 4.8 km/h 11.3 km/h 71 % 0.0 mm
13:17 1.7 °C -3.2 °C 1020.5 hPa SE 6.4 km/h 11.3 km/h 70 % 0.0 mm
13:22 1.7 °C -3.0 °C 1020.5 hPa SE 9.7 km/h 11.3 km/h 71 % 0.0 mm
13:27 1.8 °C -3.1 °C 1020.5 hPa SSE 6.4 km/h 12.9 km/h 70 % 0.0 mm
13:32 2.2 °C -2.9 °C 1020.5 hPa East 4.8 km/h 12.9 km/h 69 % 0.0 mm
13:37 2.4 °C -3.1 °C 1020.2 hPa SE 11.3 km/h 12.9 km/h 67 % 0.0 mm
13:42 2.8 °C -2.7 °C 1020.2 hPa South 3.2 km/h 19.3 km/h 67 % 0.0 mm
13:47 3.1 °C -2.4 °C 1019.9 hPa SSE 8.0 km/h 19.3 km/h 67 % 0.0 mm
13:52 3.1 °C -3.0 °C 1019.9 hPa SE 3.2 km/h 19.3 km/h 64 % 0.0 mm
13:57 3.0 °C -2.9 °C 1019.9 hPa ESE 6.4 km/h 14.5 km/h 65 % 0.0 mm
14:02 3.1 °C -2.6 °C 1019.9 hPa SE 6.4 km/h 14.5 km/h 66 % 0.0 mm
14:07 3.1 °C -2.8 °C 1019.9 hPa ESE 6.4 km/h 12.9 km/h 65 % 0.0 mm
14:12 3.4 °C -2.6 °C 1019.9 hPa East 6.4 km/h 12.9 km/h 65 % 0.0 mm
14:17 3.6 °C -2.8 °C 1019.9 hPa ENE 4.8 km/h 12.9 km/h 63 % 0.0 mm
14:22 3.9 °C -2.7 °C 1019.5 hPa East 8.0 km/h 12.9 km/h 62 % 0.0 mm
14:27 3.9 °C -2.9 °C 1019.2 hPa ENE 12.9 km/h 12.9 km/h 61 % 0.0 mm
14:32 4.0 °C -2.8 °C 1019.5 hPa East 12.9 km/h 17.7 km/h 61 % 0.0 mm
14:37 4.1 °C -2.7 °C 1018.8 hPa East 8.0 km/h 17.7 km/h 61 % 0.0 mm
14:42 4.2 °C -2.7 °C 1018.8 hPa East 6.4 km/h 17.7 km/h 61 % 0.0 mm
14:47 4.3 °C -2.6 °C 1018.8 hPa East 4.8 km/h 16.1 km/h 61 % 0.0 mm
14:52 4.6 °C -2.3 °C 1019.2 hPa SE 3.2 km/h 16.1 km/h 61 % 0.0 mm
14:57 4.6 °C -2.5 °C 1019.2 hPa ESE 3.2 km/h 16.1 km/h 60 % 0.0 mm
15:07 4.8 °C -2.3 °C 1018.8 hPa ESE 4.8 km/h 14.5 km/h 60 % 0.0 mm
15:12 4.9 °C -2.4 °C 1018.8 hPa East 8.0 km/h 14.5 km/h 59 % 0.0 mm
15:17 5.1 °C -2.5 °C 1018.8 hPa ENE 11.3 km/h 11.3 km/h 58 % 0.0 mm
15:22 5.2 °C -2.6 °C 1018.8 hPa ENE 6.4 km/h 14.5 km/h 57 % 0.0 mm
15:27 5.2 °C -2.6 °C 1018.5 hPa ESE 1.6 km/h 14.5 km/h 57 % 0.0 mm
15:32 5.3 °C -2.3 °C 1018.5 hPa East 4.8 km/h 14.5 km/h 58 % 0.0 mm
15:37 5.5 °C -2.1 °C 1018.8 hPa East 8.0 km/h 14.5 km/h 58 % 0.0 mm
15:42 5.4 °C -2.4 °C 1018.8 hPa ESE 1.6 km/h 12.9 km/h 57 % 0.0 mm
15:47 5.4 °C -2.4 °C 1018.5 hPa East 3.2 km/h 12.9 km/h 57 % 0.0 mm
15:52 5.5 °C -2.1 °C 1018.5 hPa East 4.8 km/h 12.9 km/h 58 % 0.0 mm
15:57 5.5 °C -2.3 °C 1018.5 hPa ENE 4.8 km/h 12.9 km/h 57 % 0.0 mm
16:02 5.4 °C -2.2 °C 1018.5 hPa ENE 4.8 km/h 9.7 km/h 58 % 0.0 mm
16:12 5.4 °C -2.2 °C 1018.2 hPa ENE 9.7 km/h 11.3 km/h 58 % 0.0 mm
16:17 5.4 °C -2.2 °C 1018.2 hPa East 4.8 km/h 16.1 km/h 58 % 0.0 mm
16:22 5.4 °C -2.2 °C 1018.2 hPa East 1.6 km/h 16.1 km/h 58 % 0.0 mm
16:27 5.3 °C -2.5 °C 1018.2 hPa ENE 1.6 km/h 16.1 km/h 57 % 0.0 mm
16:32 5.3 °C -2.3 °C 1018.2 hPa East 3.2 km/h 14.5 km/h 58 % 0.0 mm
16:37 5.1 °C -2.3 °C 1018.2 hPa ENE 1.6 km/h 8.0 km/h 59 % 0.0 mm
16:42 4.9 °C -2.2 °C 1018.2 hPa ENE 3.2 km/h 8.0 km/h 60 % 0.0 mm
16:47 4.8 °C -2.1 °C 1017.8 hPa ENE 3.2 km/h 6.4 km/h 61 % 0.0 mm
16:52 4.7 °C -2.2 °C 1017.8 hPa Calm   6.4 km/h 61 % 0.0 mm
16:57 4.7 °C -2.2 °C 1017.8 hPa East 1.6 km/h 6.4 km/h 61 % 0.0 mm
17:02 4.7 °C -2.2 °C 1017.8 hPa East 1.6 km/h 6.4 km/h 61 % 0.0 mm
17:07 4.5 °C -2.4 °C 1017.8 hPa Calm   3.2 km/h 61 % 0.0 mm
17:12 4.4 °C -2.2 °C 1017.8 hPa Calm   3.2 km/h 62 % 0.0 mm
17:17 4.2 °C -2.4 °C 1017.8 hPa East 1.6 km/h 3.2 km/h 62 % 0.0 mm
17:22 4.2 °C -2.4 °C 1017.5 hPa Calm   1.6 km/h 62 % 0.0 mm
17:27 4.3 °C -2.3 °C 1017.8 hPa Calm   1.6 km/h 62 % 0.0 mm
17:32 4.1 °C -2.5 °C 1017.8 hPa Calm   1.6 km/h 62 % 0.0 mm
17:37 3.8 °C -2.6 °C 1017.8 hPa Calm   1.6 km/h 63 % 0.0 mm
17:42 3.7 °C -2.7 °C 1017.5 hPa Calm   1.6 km/h 63 % 0.0 mm
17:47 3.4 °C -2.8 °C 1017.5 hPa Calm   1.6 km/h 64 % 0.0 mm
17:52 3.4 °C -2.8 °C 1017.5 hPa Calm   1.6 km/h 64 % 0.0 mm
17:57 3.3 °C -2.7 °C 1017.5 hPa NE 4.8 km/h   65 % 0.0 mm
18:02 3.3 °C -2.9 °C 1017.2 hPa NNE 1.6 km/h 3.2 km/h 64 % 0.0 mm
18:12 3.2 °C -3.0 °C 1017.2 hPa NE 1.6 km/h 4.8 km/h 64 % 0.0 mm
18:17 3.1 °C -2.8 °C 1017.2 hPa NE 1.6 km/h 4.8 km/h 65 % 0.0 mm
18:22 3.1 °C -2.8 °C 1017.2 hPa NE 1.6 km/h 4.8 km/h 65 % 0.0 mm
18:32 2.5 °C -3.0 °C 1017.2 hPa East 1.6 km/h 3.2 km/h 67 % 0.0 mm
18:37 2.2 °C -2.9 °C 1017.2 hPa Calm   3.2 km/h 69 % 0.0 mm
18:42 2.2 °C -2.7 °C 1017.2 hPa Calm   4.8 km/h 70 % 0.0 mm
18:47 2.2 °C -2.9 °C 1017.5 hPa Calm   4.8 km/h 69 % 0.0 mm
18:52 1.9 °C -3.2 °C 1017.5 hPa SSE 1.6 km/h 3.2 km/h 69 % 0.0 mm
19:02 1.1 °C -3.4 °C 1017.5 hPa Calm   3.2 km/h 72 % 0.0 mm
19:07 1.2 °C -3.3 °C 1017.5 hPa Calm   3.2 km/h 72 % 0.0 mm
19:12 1.1 °C -3.4 °C 1017.5 hPa Calm   3.2 km/h 72 % 0.0 mm
19:17 1.2 °C -3.3 °C 1017.5 hPa Calm   1.6 km/h 72 % 0.0 mm
19:22 1.3 °C -3.4 °C 1017.5 hPa Calm   1.6 km/h 71 % 0.0 mm
19:32 1.4 °C -3.5 °C 1017.5 hPa SE 4.8 km/h 4.8 km/h 70 % 0.0 mm
19:37 1.4 °C -3.3 °C 1017.5 hPa ESE 1.6 km/h 8.0 km/h 71 % 0.0 mm
19:42 1.6 °C -3.1 °C 1017.5 hPa ESE 4.8 km/h 9.7 km/h 71 % 0.0 mm
19:47 1.9 °C -3.0 °C 1017.5 hPa SSE 3.2 km/h 16.1 km/h 70 % 0.0 mm
19:52 1.8 °C -2.9 °C 1017.5 hPa SE 4.8 km/h 16.1 km/h 71 % 0.0 mm
19:57 1.6 °C -2.9 °C 1017.5 hPa East 3.2 km/h 16.1 km/h 72 % 0.0 mm
20:02 1.7 °C -2.8 °C 1017.2 hPa East 4.8 km/h 16.1 km/h 72 % 0.0 mm
20:07 1.7 °C -2.8 °C 1017.2 hPa East 9.7 km/h 11.3 km/h 72 % 0.0 mm
20:12 1.7 °C -2.8 °C 1017.2 hPa ESE 1.6 km/h 11.3 km/h 72 % 0.0 mm
20:17 1.7 °C -2.8 °C 1017.2 hPa ENE 16.1 km/h 16.1 km/h 72 % 0.0 mm
20:22 1.7 °C -2.8 °C 1016.5 hPa East 16.1 km/h 17.7 km/h 72 % 0.0 mm
20:27 1.8 °C -2.7 °C 1016.8 hPa ESE 16.1 km/h 22.5 km/h 72 % 0.0 mm
20:32 1.9 °C -2.4 °C 1016.5 hPa East 9.7 km/h 22.5 km/h 73 % 0.0 mm
20:37 2.1 °C -2.2 °C 1016.5 hPa East 11.3 km/h 22.5 km/h 73 % 0.0 mm
20:42 2.1 °C -2.0 °C 1016.5 hPa East 9.7 km/h 19.3 km/h 74 % 0.0 mm
20:47 2.2 °C -2.0 °C 1016.5 hPa SE 3.2 km/h 19.3 km/h 74 % 0.0 mm
20:52 2.3 °C -1.9 °C 1016.5 hPa SE 3.2 km/h 19.3 km/h 74 % 0.0 mm
20:57 2.3 °C -1.7 °C 1016.5 hPa East 3.2 km/h 17.7 km/h 75 % 0.0 mm
21:02 2.3 °C -1.3 °C 1016.8 hPa SE 6.4 km/h 17.7 km/h 77 % 0.0 mm
21:07 2.7 °C -0.8 °C 1016.5 hPa ESE 16.1 km/h 22.5 km/h 78 % 0.0 mm
21:12 3.2 °C -0.3 °C 1016.5 hPa SE 16.1 km/h 25.7 km/h 78 % 0.0 mm
21:17 3.4 °C -0.1 °C 1016.8 hPa SE 16.1 km/h 25.7 km/h 78 % 0.0 mm
21:22 3.5 °C 0.4 °C 1016.5 hPa SE 20.9 km/h 25.7 km/h 80 % 0.0 mm
21:27 3.6 °C 0.8 °C 1016.5 hPa SE 17.7 km/h 29.0 km/h 82 % 0.0 mm
21:32 3.7 °C 1.1 °C 1016.5 hPa SE 14.5 km/h 29.0 km/h 83 % 0.0 mm
21:37 3.7 °C 1.1 °C 1016.1 hPa SE 11.3 km/h 30.6 km/h 83 % 0.0 mm
21:42 3.4 °C 1.1 °C 1016.1 hPa SE 14.5 km/h 30.6 km/h 85 % 0.0 mm
21:47 3.3 °C 1.2 °C 1015.8 hPa SE 6.4 km/h 30.6 km/h 86 % 0.3 mm
21:52 2.9 °C 0.8 °C 1015.8 hPa ESE 4.8 km/h 30.6 km/h 86 % 0.3 mm
21:57 2.7 °C 0.8 °C 1015.8 hPa SSE 4.8 km/h 25.7 km/h 87 % 0.3 mm
22:02 2.9 °C 1.1 °C 1015.5 hPa ESE 14.5 km/h 25.7 km/h 88 % 0.3 mm
22:12 3.1 °C 1.1 °C 1015.5 hPa ESE 6.4 km/h 27.4 km/h 87 % 0.3 mm
22:17 2.8 °C 0.9 °C 1015.5 hPa SE 6.4 km/h 27.4 km/h 87 % 0.3 mm
22:22 2.7 °C 0.9 °C 1015.5 hPa SE 6.4 km/h 27.4 km/h 88 % 0.3 mm
22:27 2.6 °C 0.8 °C 1015.5 hPa SSE 4.8 km/h 16.1 km/h 88 % 0.3 mm
22:32 2.6 °C 0.8 °C 1015.5 hPa SSE 8.0 km/h 16.1 km/h 88 % 0.3 mm
22:37 2.6 °C 1.0 °C 1015.5 hPa East 9.7 km/h 12.9 km/h 89 % 0.3 mm
22:42 2.7 °C 1.1 °C 1015.5 hPa SSE 4.8 km/h 12.9 km/h 89 % 0.3 mm
22:47 2.8 °C 1.2 °C 1015.5 hPa SE 4.8 km/h 14.5 km/h 89 % 0.0 mm
22:57 3.1 °C 1.5 °C 1015.5 hPa SE 6.4 km/h 14.5 km/h 89 % 0.0 mm
23:07 2.9 °C 1.1 °C 1015.5 hPa SSE 6.4 km/h 17.7 km/h 88 % 0.0 mm
23:12 2.8 °C 0.9 °C 1015.5 hPa ESE 8.0 km/h 17.7 km/h 87 % 0.0 mm
23:17 2.8 °C 0.9 °C 1015.5 hPa ESE 3.2 km/h 19.3 km/h 87 % 0.0 mm
23:32 2.5 °C 0.6 °C 1015.5 hPa SE 3.2 km/h 17.7 km/h 87 % 0.0 mm
23:37 2.4 °C 0.5 °C 1015.5 hPa ESE 6.4 km/h 11.3 km/h 87 % 0.0 mm
23:42 2.6 °C 0.5 °C 1015.5 hPa SE 4.8 km/h 11.3 km/h 86 % 0.0 mm
23:52 2.4 °C 0.1 °C 1015.5 hPa ESE 6.4 km/h 27.4 km/h 85 % 0.0 mm
Meteo18
Compliments of Weather Underground - 4 mb

Script developed by  Jim McMurry - jmcmurry@mwt.net Adapted for the template by  Wim van der Kuil - Leuven-Template.eu

You find our weather info also at:

European Weather Network

Weather Underground

Equipment we use:

Weather-station
Davis Vue

Weather-program
Meteohub

Weather-server
Raspberry PI 2 B+

Provider
1 and 1

Davis Vue

Meteohub

Raspberry PI 2 B+

1 and 1